sensor_id;sensor_type;location;lat;lon;timestamp;temperature;humidity
11385;DHT22;5747;56.748;13.882;2023-11-19T00:01:18;-3.90;99.90
11385;DHT22;5747;56.748;13.882;2023-11-19T00:03:46;-3.90;99.90
11385;DHT22;5747;56.748;13.882;2023-11-19T00:06:17;-3.80;99.90
11385;DHT22;5747;56.748;13.882;2023-11-19T00:08:45;-3.80;99.90
11385;DHT22;5747;56.748;13.882;2023-11-19T00:11:13;-3.80;99.90
11385;DHT22;5747;56.748;13.882;2023-11-19T00:13:44;-3.70;99.90
11385;DHT22;5747;56.748;13.882;2023-11-19T00:16:12;-3.60;99.90
11385;DHT22;5747;56.748;13.882;2023-11-19T00:18:41;-3.50;99.90
11385;DHT22;5747;56.748;13.882;2023-11-19T00:21:09;-3.40;99.90
11385;DHT22;5747;56.748;13.882;2023-11-19T00:23:37;-3.30;99.90
11385;DHT22;5747;56.748;13.882;2023-11-19T00:26:06;-3.00;99.90
11385;DHT22;5747;56.748;13.882;2023-11-19T00:28:36;-2.90;99.90
11385;DHT22;5747;56.748;13.882;2023-11-19T00:31:07;-2.80;99.90
11385;DHT22;5747;56.748;13.882;2023-11-19T00:33:35;-2.70;99.90
11385;DHT22;5747;56.748;13.882;2023-11-19T00:36:16;-2.60;99.90
11385;DHT22;5747;56.748;13.882;2023-11-19T00:38:44;-2.30;99.90
11385;DHT22;5747;56.748;13.882;2023-11-19T00:41:12;-2.30;99.90
11385;DHT22;5747;56.748;13.882;2023-11-19T00:43:43;-2.20;99.90
11385;DHT22;5747;56.748;13.882;2023-11-19T00:46:12;-2.10;99.90
11385;DHT22;5747;56.748;13.882;2023-11-19T00:48:41;-2.10;99.90
11385;DHT22;5747;56.748;13.882;2023-11-19T00:51:11;-1.90;99.90
11385;DHT22;5747;56.748;13.882;2023-11-19T00:53:39;-1.80;99.90
11385;DHT22;5747;56.748;13.882;2023-11-19T00:56:08;-1.70;99.90
11385;DHT22;5747;56.748;13.882;2023-11-19T00:58:39;-1.70;99.90
11385;DHT22;5747;56.748;13.882;2023-11-19T01:01:07;-1.70;99.90
11385;DHT22;5747;56.748;13.882;2023-11-19T01:03:36;-1.70;99.90
11385;DHT22;5747;56.748;13.882;2023-11-19T01:06:05;-1.70;99.90
11385;DHT22;5747;56.748;13.882;2023-11-19T01:08:35;-1.60;99.90
11385;DHT22;5747;56.748;13.882;2023-11-19T01:11:04;-1.60;99.90
11385;DHT22;5747;56.748;13.882;2023-11-19T01:13:32;-1.60;99.90
11385;DHT22;5747;56.748;13.882;2023-11-19T01:16:00;-1.60;99.90
11385;DHT22;5747;56.748;13.882;2023-11-19T01:18:29;-1.60;99.90
11385;DHT22;5747;56.748;13.882;2023-11-19T01:20:58;-1.60;99.90
11385;DHT22;5747;56.748;13.882;2023-11-19T01:23:27;-1.60;99.90
11385;DHT22;5747;56.748;13.882;2023-11-19T01:25:55;-1.70;99.90
11385;DHT22;5747;56.748;13.882;2023-11-19T01:28:23;-1.70;99.90
11385;DHT22;5747;56.748;13.882;2023-11-19T01:30:51;-1.70;99.90
11385;DHT22;5747;56.748;13.882;2023-11-19T01:33:19;-1.60;99.90
11385;DHT22;5747;56.748;13.882;2023-11-19T01:35:48;-1.70;99.90
11385;DHT22;5747;56.748;13.882;2023-11-19T01:38:17;-1.70;99.90
11385;DHT22;5747;56.748;13.882;2023-11-19T01:40:45;-1.80;99.90
11385;DHT22;5747;56.748;13.882;2023-11-19T01:43:32;-1.70;99.90
11385;DHT22;5747;56.748;13.882;2023-11-19T01:46:01;-1.70;99.90
11385;DHT22;5747;56.748;13.882;2023-11-19T01:48:30;-1.60;99.90
11385;DHT22;5747;56.748;13.882;2023-11-19T01:51:00;-1.70;99.90
11385;DHT22;5747;56.748;13.882;2023-11-19T01:53:31;-1.70;99.90
11385;DHT22;5747;56.748;13.882;2023-11-19T01:56:00;-1.70;99.90
11385;DHT22;5747;56.748;13.882;2023-11-19T01:58:29;-1.70;99.90
11385;DHT22;5747;56.748;13.882;2023-11-19T02:00:58;-1.60;99.90
11385;DHT22;5747;56.748;13.882;2023-11-19T02:03:26;-1.70;99.90
11385;DHT22;5747;56.748;13.882;2023-11-19T02:05:56;-1.60;99.90
11385;DHT22;5747;56.748;13.882;2023-11-19T02:08:24;-1.60;99.90
11385;DHT22;5747;56.748;13.882;2023-11-19T02:10:54;-1.50;99.90
11385;DHT22;5747;56.748;13.882;2023-11-19T02:13:24;-1.50;99.90
11385;DHT22;5747;56.748;13.882;2023-11-19T02:15:52;-1.40;99.90
11385;DHT22;5747;56.748;13.882;2023-11-19T02:18:23;-1.40;99.90
11385;DHT22;5747;56.748;13.882;2023-11-19T02:20:55;-1.40;99.90
11385;DHT22;5747;56.748;13.882;2023-11-19T02:23:25;-1.30;99.90
11385;DHT22;5747;56.748;13.882;2023-11-19T02:26:03;-1.30;99.90
11385;DHT22;5747;56.748;13.882;2023-11-19T02:28:36;-1.30;99.90
11385;DHT22;5747;56.748;13.882;2023-11-19T02:31:05;-1.20;99.90
11385;DHT22;5747;56.748;13.882;2023-11-19T02:33:37;-1.20;99.90
11385;DHT22;5747;56.748;13.882;2023-11-19T02:36:06;-1.20;99.90
11385;DHT22;5747;56.748;13.882;2023-11-19T02:38:35;-1.20;99.90
11385;DHT22;5747;56.748;13.882;2023-11-19T02:41:04;-1.10;99.90
11385;DHT22;5747;56.748;13.882;2023-11-19T02:43:33;-1.00;99.90
11385;DHT22;5747;56.748;13.882;2023-11-19T02:46:03;-1.00;99.90
11385;DHT22;5747;56.748;13.882;2023-11-19T02:48:36;-1.00;99.90
11385;DHT22;5747;56.748;13.882;2023-11-19T02:51:06;-1.00;99.90
11385;DHT22;5747;56.748;13.882;2023-11-19T02:53:36;-0.90;99.90
11385;DHT22;5747;56.748;13.882;2023-11-19T02:56:07;-0.90;99.90
11385;DHT22;5747;56.748;13.882;2023-11-19T02:58:43;-0.80;99.90
11385;DHT22;5747;56.748;13.882;2023-11-19T03:01:13;-0.70;99.90
11385;DHT22;5747;56.748;13.882;2023-11-19T03:03:50;-0.70;99.90
11385;DHT22;5747;56.748;13.882;2023-11-19T03:06:21;-0.60;99.90
11385;DHT22;5747;56.748;13.882;2023-11-19T03:08:49;-0.60;99.90
11385;DHT22;5747;56.748;13.882;2023-11-19T03:11:18;-0.50;99.90
11385;DHT22;5747;56.748;13.882;2023-11-19T03:13:46;-0.50;99.90
11385;DHT22;5747;56.748;13.882;2023-11-19T03:16:16;-0.50;99.90
11385;DHT22;5747;56.748;13.882;2023-11-19T03:18:44;-0.40;99.90
11385;DHT22;5747;56.748;13.882;2023-11-19T03:21:12;-0.40;99.90
11385;DHT22;5747;56.748;13.882;2023-11-19T03:23:40;-0.30;99.90
11385;DHT22;5747;56.748;13.882;2023-11-19T03:26:10;-0.30;99.90
11385;DHT22;5747;56.748;13.882;2023-11-19T03:28:38;-0.30;99.90
11385;DHT22;5747;56.748;13.882;2023-11-19T03:31:07;-0.30;99.90
11385;DHT22;5747;56.748;13.882;2023-11-19T03:33:37;-0.20;99.90
11385;DHT22;5747;56.748;13.882;2023-11-19T03:36:06;-0.20;99.90
11385;DHT22;5747;56.748;13.882;2023-11-19T03:38:34;-0.20;99.90
11385;DHT22;5747;56.748;13.882;2023-11-19T03:41:10;-0.20;99.90
11385;DHT22;5747;56.748;13.882;2023-11-19T03:43:38;-0.20;99.90
11385;DHT22;5747;56.748;13.882;2023-11-19T03:46:16;-0.20;99.90
11385;DHT22;5747;56.748;13.882;2023-11-19T03:48:46;-0.10;99.90
11385;DHT22;5747;56.748;13.882;2023-11-19T03:51:15;-0.10;99.90
11385;DHT22;5747;56.748;13.882;2023-11-19T03:53:43;-0.10;99.90
11385;DHT22;5747;56.748;13.882;2023-11-19T03:56:11;-0.10;99.90
11385;DHT22;5747;56.748;13.882;2023-11-19T03:58:40;-0.10;99.90
11385;DHT22;5747;56.748;13.882;2023-11-19T04:01:11;0.00;99.90
11385;DHT22;5747;56.748;13.882;2023-11-19T04:03:41;0.00;99.90
11385;DHT22;5747;56.748;13.882;2023-11-19T04:06:13;0.00;99.90
11385;DHT22;5747;56.748;13.882;2023-11-19T04:08:41;0.10;99.90
11385;DHT22;5747;56.748;13.882;2023-11-19T04:11:10;0.10;99.90
11385;DHT22;5747;56.748;13.882;2023-11-19T04:13:38;0.10;99.90
11385;DHT22;5747;56.748;13.882;2023-11-19T04:16:07;0.10;99.90
11385;DHT22;5747;56.748;13.882;2023-11-19T04:18:36;0.10;99.90
11385;DHT22;5747;56.748;13.882;2023-11-19T04:21:06;0.10;99.90
11385;DHT22;5747;56.748;13.882;2023-11-19T04:23:36;0.20;99.90
11385;DHT22;5747;56.748;13.882;2023-11-19T04:26:04;0.20;99.90
11385;DHT22;5747;56.748;13.882;2023-11-19T04:28:37;0.20;99.90
11385;DHT22;5747;56.748;13.882;2023-11-19T04:31:06;0.20;99.90
11385;DHT22;5747;56.748;13.882;2023-11-19T04:33:36;0.20;99.90
11385;DHT22;5747;56.748;13.882;2023-11-19T04:36:04;0.20;99.90
11385;DHT22;5747;56.748;13.882;2023-11-19T04:38:35;0.20;99.90
11385;DHT22;5747;56.748;13.882;2023-11-19T04:41:05;0.20;99.90
11385;DHT22;5747;56.748;13.882;2023-11-19T04:43:33;0.20;99.90
11385;DHT22;5747;56.748;13.882;2023-11-19T04:46:03;0.20;99.90
11385;DHT22;5747;56.748;13.882;2023-11-19T04:48:32;0.30;99.90
11385;DHT22;5747;56.748;13.882;2023-11-19T04:51:04;0.20;99.90
11385;DHT22;5747;56.748;13.882;2023-11-19T04:53:33;0.30;99.90
11385;DHT22;5747;56.748;13.882;2023-11-19T04:56:07;0.20;99.90
11385;DHT22;5747;56.748;13.882;2023-11-19T04:58:35;0.20;99.90
11385;DHT22;5747;56.748;13.882;2023-11-19T05:01:04;0.30;99.90
11385;DHT22;5747;56.748;13.882;2023-11-19T05:03:33;0.30;99.90
11385;DHT22;5747;56.748;13.882;2023-11-19T05:06:01;0.30;99.90
11385;DHT22;5747;56.748;13.882;2023-11-19T05:08:29;0.30;99.90
11385;DHT22;5747;56.748;13.882;2023-11-19T05:10:57;0.30;99.90
11385;DHT22;5747;56.748;13.882;2023-11-19T05:13:27;0.30;99.90
11385;DHT22;5747;56.748;13.882;2023-11-19T05:15:55;0.30;99.90
11385;DHT22;5747;56.748;13.882;2023-11-19T05:18:23;0.30;99.90
11385;DHT22;5747;56.748;13.882;2023-11-19T05:20:51;0.40;99.90
11385;DHT22;5747;56.748;13.882;2023-11-19T05:23:19;0.30;99.90
11385;DHT22;5747;56.748;13.882;2023-11-19T05:25:48;0.30;99.90
11385;DHT22;5747;56.748;13.882;2023-11-19T05:28:16;0.30;99.90
11385;DHT22;5747;56.748;13.882;2023-11-19T05:30:46;0.40;99.90
11385;DHT22;5747;56.748;13.882;2023-11-19T05:33:14;0.40;99.90
11385;DHT22;5747;56.748;13.882;2023-11-19T05:35:42;0.40;99.90
11385;DHT22;5747;56.748;13.882;2023-11-19T05:38:10;0.50;99.90
11385;DHT22;5747;56.748;13.882;2023-11-19T05:40:38;0.50;99.90
11385;DHT22;5747;56.748;13.882;2023-11-19T05:43:06;0.50;99.90
11385;DHT22;5747;56.748;13.882;2023-11-19T05:45:35;0.50;99.90
11385;DHT22;5747;56.748;13.882;2023-11-19T05:48:04;0.50;99.90
11385;DHT22;5747;56.748;13.882;2023-11-19T05:50:32;0.50;99.90
11385;DHT22;5747;56.748;13.882;2023-11-19T05:53:01;0.60;99.90
11385;DHT22;5747;56.748;13.882;2023-11-19T05:55:29;0.50;99.90
11385;DHT22;5747;56.748;13.882;2023-11-19T05:57:58;0.50;99.90
11385;DHT22;5747;56.748;13.882;2023-11-19T06:00:26;0.60;99.90
11385;DHT22;5747;56.748;13.882;2023-11-19T06:02:54;0.60;99.90
11385;DHT22;5747;56.748;13.882;2023-11-19T06:05:24;0.60;99.90
11385;DHT22;5747;56.748;13.882;2023-11-19T06:07:52;0.60;99.90
11385;DHT22;5747;56.748;13.882;2023-11-19T06:10:20;0.70;99.90
11385;DHT22;5747;56.748;13.882;2023-11-19T06:12:48;0.70;99.90
11385;DHT22;5747;56.748;13.882;2023-11-19T06:15:22;0.70;99.90
11385;DHT22;5747;56.748;13.882;2023-11-19T06:17:51;0.70;99.90
11385;DHT22;5747;56.748;13.882;2023-11-19T06:20:19;0.70;99.90
11385;DHT22;5747;56.748;13.882;2023-11-19T06:22:49;0.70;99.90
11385;DHT22;5747;56.748;13.882;2023-11-19T06:25:17;0.60;99.90
11385;DHT22;5747;56.748;13.882;2023-11-19T06:27:45;0.70;99.90
11385;DHT22;5747;56.748;13.882;2023-11-19T06:30:13;0.80;99.90
11385;DHT22;5747;56.748;13.882;2023-11-19T06:32:42;0.80;99.90
11385;DHT22;5747;56.748;13.882;2023-11-19T06:35:10;0.80;99.90
11385;DHT22;5747;56.748;13.882;2023-11-19T06:37:38;0.80;99.90
11385;DHT22;5747;56.748;13.882;2023-11-19T06:40:09;0.80;99.90
11385;DHT22;5747;56.748;13.882;2023-11-19T06:42:39;0.80;99.90
11385;DHT22;5747;56.748;13.882;2023-11-19T06:45:07;0.80;99.90
11385;DHT22;5747;56.748;13.882;2023-11-19T06:47:36;0.80;99.90
11385;DHT22;5747;56.748;13.882;2023-11-19T06:50:05;0.80;99.90
11385;DHT22;5747;56.748;13.882;2023-11-19T06:52:34;0.90;99.90
11385;DHT22;5747;56.748;13.882;2023-11-19T06:55:04;0.90;99.90
11385;DHT22;5747;56.748;13.882;2023-11-19T06:57:36;0.90;99.90
11385;DHT22;5747;56.748;13.882;2023-11-19T07:00:06;0.90;99.90
11385;DHT22;5747;56.748;13.882;2023-11-19T07:02:35;0.90;99.90
11385;DHT22;5747;56.748;13.882;2023-11-19T07:05:04;0.90;99.90
11385;DHT22;5747;56.748;13.882;2023-11-19T07:07:32;1.00;99.90
11385;DHT22;5747;56.748;13.882;2023-11-19T07:10:02;1.00;99.90
11385;DHT22;5747;56.748;13.882;2023-11-19T07:12:32;1.00;99.90
11385;DHT22;5747;56.748;13.882;2023-11-19T07:15:05;1.10;99.90
11385;DHT22;5747;56.748;13.882;2023-11-19T07:17:33;1.10;99.90
11385;DHT22;5747;56.748;13.882;2023-11-19T07:20:02;1.10;99.90
11385;DHT22;5747;56.748;13.882;2023-11-19T07:22:32;1.10;99.90
11385;DHT22;5747;56.748;13.882;2023-11-19T07:25:00;1.10;99.90
11385;DHT22;5747;56.748;13.882;2023-11-19T07:27:29;1.20;99.90
11385;DHT22;5747;56.748;13.882;2023-11-19T07:29:57;1.20;99.90
11385;DHT22;5747;56.748;13.882;2023-11-19T07:32:26;1.20;99.90
11385;DHT22;5747;56.748;13.882;2023-11-19T07:34:55;1.20;99.90
11385;DHT22;5747;56.748;13.882;2023-11-19T07:37:23;1.30;99.90
11385;DHT22;5747;56.748;13.882;2023-11-19T07:39:51;1.30;99.90
11385;DHT22;5747;56.748;13.882;2023-11-19T07:42:19;1.40;99.90
11385;DHT22;5747;56.748;13.882;2023-11-19T07:44:47;1.40;99.90
11385;DHT22;5747;56.748;13.882;2023-11-19T07:47:16;1.40;99.90
11385;DHT22;5747;56.748;13.882;2023-11-19T07:49:45;1.40;99.90
11385;DHT22;5747;56.748;13.882;2023-11-19T07:52:13;1.40;99.90
11385;DHT22;5747;56.748;13.882;2023-11-19T07:54:44;1.50;99.90
11385;DHT22;5747;56.748;13.882;2023-11-19T07:57:12;1.50;99.90
11385;DHT22;5747;56.748;13.882;2023-11-19T07:59:40;1.60;99.90
11385;DHT22;5747;56.748;13.882;2023-11-19T08:02:08;1.60;99.90
11385;DHT22;5747;56.748;13.882;2023-11-19T08:04:37;1.60;99.90
11385;DHT22;5747;56.748;13.882;2023-11-19T08:07:08;1.60;99.90
11385;DHT22;5747;56.748;13.882;2023-11-19T08:09:36;1.60;99.90
11385;DHT22;5747;56.748;13.882;2023-11-19T08:12:05;1.60;99.90
11385;DHT22;5747;56.748;13.882;2023-11-19T08:14:34;1.70;99.90
11385;DHT22;5747;56.748;13.882;2023-11-19T08:17:03;1.70;99.90
11385;DHT22;5747;56.748;13.882;2023-11-19T08:19:32;1.70;99.90
11385;DHT22;5747;56.748;13.882;2023-11-19T08:22:00;1.70;99.90
11385;DHT22;5747;56.748;13.882;2023-11-19T08:24:30;1.70;99.90
11385;DHT22;5747;56.748;13.882;2023-11-19T08:26:58;1.70;99.90
11385;DHT22;5747;56.748;13.882;2023-11-19T08:29:29;1.80;99.90
11385;DHT22;5747;56.748;13.882;2023-11-19T08:31:59;1.80;99.90
11385;DHT22;5747;56.748;13.882;2023-11-19T08:34:29;1.80;99.90
11385;DHT22;5747;56.748;13.882;2023-11-19T08:36:57;1.90;99.90
11385;DHT22;5747;56.748;13.882;2023-11-19T08:39:25;1.80;99.90
11385;DHT22;5747;56.748;13.882;2023-11-19T08:41:55;1.80;99.90
11385;DHT22;5747;56.748;13.882;2023-11-19T08:44:23;1.90;99.90
11385;DHT22;5747;56.748;13.882;2023-11-19T08:46:52;1.90;99.90
11385;DHT22;5747;56.748;13.882;2023-11-19T08:49:20;1.90;99.90
11385;DHT22;5747;56.748;13.882;2023-11-19T08:51:48;2.00;99.90
11385;DHT22;5747;56.748;13.882;2023-11-19T08:54:16;2.00;99.90
11385;DHT22;5747;56.748;13.882;2023-11-19T08:56:44;2.00;99.90
11385;DHT22;5747;56.748;13.882;2023-11-19T08:59:14;2.10;99.90
11385;DHT22;5747;56.748;13.882;2023-11-19T09:01:44;2.10;99.90
11385;DHT22;5747;56.748;13.882;2023-11-19T09:04:12;2.10;99.90
11385;DHT22;5747;56.748;13.882;2023-11-19T09:06:41;2.10;99.90
11385;DHT22;5747;56.748;13.882;2023-11-19T09:09:09;2.20;99.90
11385;DHT22;5747;56.748;13.882;2023-11-19T09:11:37;2.20;99.90
11385;DHT22;5747;56.748;13.882;2023-11-19T09:14:06;2.20;99.90
11385;DHT22;5747;56.748;13.882;2023-11-19T09:16:36;2.30;99.90
11385;DHT22;5747;56.748;13.882;2023-11-19T09:19:04;2.30;99.90
11385;DHT22;5747;56.748;13.882;2023-11-19T09:21:33;2.40;99.90
11385;DHT22;5747;56.748;13.882;2023-11-19T09:24:06;2.40;99.90
11385;DHT22;5747;56.748;13.882;2023-11-19T09:26:34;2.40;99.90
11385;DHT22;5747;56.748;13.882;2023-11-19T09:29:06;2.50;99.90
11385;DHT22;5747;56.748;13.882;2023-11-19T09:31:37;2.50;99.90
11385;DHT22;5747;56.748;13.882;2023-11-19T09:34:06;2.50;99.90
11385;DHT22;5747;56.748;13.882;2023-11-19T09:36:34;2.50;99.90
11385;DHT22;5747;56.748;13.882;2023-11-19T09:39:03;2.50;99.90
11385;DHT22;5747;56.748;13.882;2023-11-19T09:41:32;2.50;99.90
11385;DHT22;5747;56.748;13.882;2023-11-19T09:44:01;2.60;99.90
11385;DHT22;5747;56.748;13.882;2023-11-19T09:46:30;2.70;99.90
11385;DHT22;5747;56.748;13.882;2023-11-19T09:49:01;2.70;99.90
11385;DHT22;5747;56.748;13.882;2023-11-19T09:51:30;2.70;99.90
11385;DHT22;5747;56.748;13.882;2023-11-19T09:53:59;2.70;99.90
11385;DHT22;5747;56.748;13.882;2023-11-19T09:56:29;2.70;99.90
11385;DHT22;5747;56.748;13.882;2023-11-19T09:58:58;2.70;99.90
11385;DHT22;5747;56.748;13.882;2023-11-19T10:01:26;2.70;99.90
11385;DHT22;5747;56.748;13.882;2023-11-19T10:03:55;2.80;99.90
11385;DHT22;5747;56.748;13.882;2023-11-19T10:06:26;2.70;99.90
11385;DHT22;5747;56.748;13.882;2023-11-19T10:08:55;2.70;99.90
11385;DHT22;5747;56.748;13.882;2023-11-19T10:11:23;2.70;99.90
11385;DHT22;5747;56.748;13.882;2023-11-19T10:13:52;2.60;99.90
11385;DHT22;5747;56.748;13.882;2023-11-19T10:16:27;2.60;99.90
11385;DHT22;5747;56.748;13.882;2023-11-19T10:18:55;2.70;99.90
11385;DHT22;5747;56.748;13.882;2023-11-19T10:21:26;2.70;99.90
11385;DHT22;5747;56.748;13.882;2023-11-19T10:23:56;2.70;99.90
11385;DHT22;5747;56.748;13.882;2023-11-19T10:26:27;2.70;99.90
11385;DHT22;5747;56.748;13.882;2023-11-19T10:28:56;2.70;99.90
11385;DHT22;5747;56.748;13.882;2023-11-19T10:31:24;2.60;99.90
11385;DHT22;5747;56.748;13.882;2023-11-19T10:33:53;2.60;99.90
11385;DHT22;5747;56.748;13.882;2023-11-19T10:36:22;2.60;99.90
11385;DHT22;5747;56.748;13.882;2023-11-19T10:38:54;2.60;99.90
11385;DHT22;5747;56.748;13.882;2023-11-19T10:41:28;2.50;99.90
11385;DHT22;5747;56.748;13.882;2023-11-19T10:43:57;2.50;99.90
11385;DHT22;5747;56.748;13.882;2023-11-19T10:46:37;2.50;99.90
11385;DHT22;5747;56.748;13.882;2023-11-19T10:49:06;2.50;99.90
11385;DHT22;5747;56.748;13.882;2023-11-19T10:51:34;2.50;99.90
11385;DHT22;5747;56.748;13.882;2023-11-19T10:54:05;2.40;99.90
11385;DHT22;5747;56.748;13.882;2023-11-19T10:56:34;2.40;99.90
11385;DHT22;5747;56.748;13.882;2023-11-19T10:59:02;2.50;99.90
11385;DHT22;5747;56.748;13.882;2023-11-19T11:01:52;2.50;99.90
11385;DHT22;5747;56.748;13.882;2023-11-19T11:04:23;2.60;99.90
11385;DHT22;5747;56.748;13.882;2023-11-19T11:06:54;2.60;99.90
11385;DHT22;5747;56.748;13.882;2023-11-19T11:09:26;2.60;99.90
11385;DHT22;5747;56.748;13.882;2023-11-19T11:11:55;2.60;99.90
11385;DHT22;5747;56.748;13.882;2023-11-19T11:14:25;2.60;99.90
11385;DHT22;5747;56.748;13.882;2023-11-19T11:16:56;2.70;99.90
11385;DHT22;5747;56.748;13.882;2023-11-19T11:19:26;2.70;99.90
11385;DHT22;5747;56.748;13.882;2023-11-19T11:21:55;2.80;99.90
11385;DHT22;5747;56.748;13.882;2023-11-19T11:24:45;2.80;99.90
11385;DHT22;5747;56.748;13.882;2023-11-19T11:27:38;2.90;99.90
11385;DHT22;5747;56.748;13.882;2023-11-19T11:30:23;2.90;99.90
11385;DHT22;5747;56.748;13.882;2023-11-19T11:33:04;2.90;99.90
11385;DHT22;5747;56.748;13.882;2023-11-19T11:35:46;2.90;99.90
11385;DHT22;5747;56.748;13.882;2023-11-19T11:38:21;2.90;99.90
11385;DHT22;5747;56.748;13.882;2023-11-19T11:41:19;2.80;99.90
11385;DHT22;5747;56.748;13.882;2023-11-19T11:43:48;2.80;99.90
11385;DHT22;5747;56.748;13.882;2023-11-19T11:46:54;2.80;99.90
11385;DHT22;5747;56.748;13.882;2023-11-19T11:49:27;2.80;99.90
11385;DHT22;5747;56.748;13.882;2023-11-19T11:52:01;2.90;99.90
11385;DHT22;5747;56.748;13.882;2023-11-19T11:54:30;2.90;99.90
11385;DHT22;5747;56.748;13.882;2023-11-19T11:57:11;2.90;99.90
11385;DHT22;5747;56.748;13.882;2023-11-19T11:59:48;2.90;99.90
11385;DHT22;5747;56.748;13.882;2023-11-19T12:02:18;2.90;99.90
11385;DHT22;5747;56.748;13.882;2023-11-19T12:04:48;2.90;99.90
11385;DHT22;5747;56.748;13.882;2023-11-19T12:07:18;2.90;99.90
11385;DHT22;5747;56.748;13.882;2023-11-19T12:09:48;2.90;99.90
11385;DHT22;5747;56.748;13.882;2023-11-19T12:12:22;2.90;99.90
11385;DHT22;5747;56.748;13.882;2023-11-19T12:15:05;2.90;99.90
11385;DHT22;5747;56.748;13.882;2023-11-19T12:17:40;2.90;99.90
11385;DHT22;5747;56.748;13.882;2023-11-19T12:20:11;2.90;99.90
11385;DHT22;5747;56.748;13.882;2023-11-19T12:22:41;2.90;99.90
11385;DHT22;5747;56.748;13.882;2023-11-19T12:25:11;3.00;99.90
11385;DHT22;5747;56.748;13.882;2023-11-19T12:27:42;3.10;99.90
11385;DHT22;5747;56.748;13.882;2023-11-19T12:30:11;3.10;99.90
11385;DHT22;5747;56.748;13.882;2023-11-19T12:32:40;3.20;99.90
11385;DHT22;5747;56.748;13.882;2023-11-19T12:35:09;3.20;99.90
11385;DHT22;5747;56.748;13.882;2023-11-19T12:37:40;3.10;99.90
11385;DHT22;5747;56.748;13.882;2023-11-19T12:40:16;3.10;99.90
11385;DHT22;5747;56.748;13.882;2023-11-19T12:42:46;3.10;99.90
11385;DHT22;5747;56.748;13.882;2023-11-19T12:45:14;2.90;99.90
11385;DHT22;5747;56.748;13.882;2023-11-19T12:47:43;2.90;99.90
11385;DHT22;5747;56.748;13.882;2023-11-19T12:50:16;2.80;99.90
11385;DHT22;5747;56.748;13.882;2023-11-19T12:52:55;2.80;99.90
11385;DHT22;5747;56.748;13.882;2023-11-19T12:55:25;2.80;99.90
11385;DHT22;5747;56.748;13.882;2023-11-19T12:57:57;2.80;99.90
11385;DHT22;5747;56.748;13.882;2023-11-19T13:00:27;2.80;99.90
11385;DHT22;5747;56.748;13.882;2023-11-19T13:02:56;2.80;99.90
11385;DHT22;5747;56.748;13.882;2023-11-19T13:05:27;2.80;99.90
11385;DHT22;5747;56.748;13.882;2023-11-19T13:08:00;2.80;99.90
11385;DHT22;5747;56.748;13.882;2023-11-19T13:10:28;2.80;99.90
11385;DHT22;5747;56.748;13.882;2023-11-19T13:13:03;2.70;99.90
11385;DHT22;5747;56.748;13.882;2023-11-19T13:15:32;2.70;99.90
11385;DHT22;5747;56.748;13.882;2023-11-19T13:18:00;2.70;99.90
11385;DHT22;5747;56.748;13.882;2023-11-19T13:20:29;2.70;99.90
11385;DHT22;5747;56.748;13.882;2023-11-19T13:23:00;2.70;99.90
11385;DHT22;5747;56.748;13.882;2023-11-19T13:25:28;2.80;99.90
11385;DHT22;5747;56.748;13.882;2023-11-19T13:27:57;2.80;99.90
11385;DHT22;5747;56.748;13.882;2023-11-19T13:30:26;2.70;99.90
11385;DHT22;5747;56.748;13.882;2023-11-19T13:32:56;2.70;99.90
11385;DHT22;5747;56.748;13.882;2023-11-19T13:35:24;2.70;99.90
11385;DHT22;5747;56.748;13.882;2023-11-19T13:37:54;2.60;99.90
11385;DHT22;5747;56.748;13.882;2023-11-19T13:40:22;2.60;99.90
11385;DHT22;5747;56.748;13.882;2023-11-19T13:42:52;2.60;99.90
11385;DHT22;5747;56.748;13.882;2023-11-19T13:45:20;2.60;99.90
11385;DHT22;5747;56.748;13.882;2023-11-19T13:47:49;2.50;99.90
11385;DHT22;5747;56.748;13.882;2023-11-19T13:50:18;2.50;99.90
11385;DHT22;5747;56.748;13.882;2023-11-19T13:52:47;2.40;99.90
11385;DHT22;5747;56.748;13.882;2023-11-19T13:55:15;2.40;99.90
11385;DHT22;5747;56.748;13.882;2023-11-19T13:57:43;2.30;99.90
11385;DHT22;5747;56.748;13.882;2023-11-19T14:00:12;2.30;99.90
11385;DHT22;5747;56.748;13.882;2023-11-19T14:02:43;2.30;99.90
11385;DHT22;5747;56.748;13.882;2023-11-19T14:05:14;2.30;99.90
11385;DHT22;5747;56.748;13.882;2023-11-19T14:07:44;2.30;99.90
11385;DHT22;5747;56.748;13.882;2023-11-19T14:10:15;2.30;99.90
11385;DHT22;5747;56.748;13.882;2023-11-19T14:12:43;2.30;99.90
11385;DHT22;5747;56.748;13.882;2023-11-19T14:15:11;2.30;99.90
11385;DHT22;5747;56.748;13.882;2023-11-19T14:17:40;2.30;99.90
11385;DHT22;5747;56.748;13.882;2023-11-19T14:20:09;2.30;99.90
11385;DHT22;5747;56.748;13.882;2023-11-19T14:22:43;2.30;99.90
11385;DHT22;5747;56.748;13.882;2023-11-19T14:25:11;2.30;99.90
11385;DHT22;5747;56.748;13.882;2023-11-19T14:27:40;2.20;99.90
11385;DHT22;5747;56.748;13.882;2023-11-19T14:30:10;2.20;99.90
11385;DHT22;5747;56.748;13.882;2023-11-19T14:32:39;2.20;99.90
11385;DHT22;5747;56.748;13.882;2023-11-19T14:35:09;2.10;99.90
11385;DHT22;5747;56.748;13.882;2023-11-19T14:37:37;2.10;99.90
11385;DHT22;5747;56.748;13.882;2023-11-19T14:40:07;2.10;99.90
11385;DHT22;5747;56.748;13.882;2023-11-19T14:42:38;2.10;99.90
11385;DHT22;5747;56.748;13.882;2023-11-19T14:45:07;2.10;99.90
11385;DHT22;5747;56.748;13.882;2023-11-19T14:47:39;2.10;99.90
11385;DHT22;5747;56.748;13.882;2023-11-19T14:50:07;2.10;99.90
11385;DHT22;5747;56.748;13.882;2023-11-19T14:52:36;2.10;99.90
11385;DHT22;5747;56.748;13.882;2023-11-19T14:55:06;2.10;99.90
11385;DHT22;5747;56.748;13.882;2023-11-19T14:57:36;2.10;99.90
11385;DHT22;5747;56.748;13.882;2023-11-19T15:00:07;2.10;99.90
11385;DHT22;5747;56.748;13.882;2023-11-19T15:02:40;2.10;99.90
11385;DHT22;5747;56.748;13.882;2023-11-19T15:05:09;2.10;99.90
11385;DHT22;5747;56.748;13.882;2023-11-19T15:07:38;2.10;99.90
11385;DHT22;5747;56.748;13.882;2023-11-19T15:10:08;2.10;99.90
11385;DHT22;5747;56.748;13.882;2023-11-19T15:12:38;2.10;99.90
11385;DHT22;5747;56.748;13.882;2023-11-19T15:15:08;2.10;99.90
11385;DHT22;5747;56.748;13.882;2023-11-19T15:17:40;2.00;99.90
11385;DHT22;5747;56.748;13.882;2023-11-19T15:20:09;2.00;99.90
11385;DHT22;5747;56.748;13.882;2023-11-19T15:22:37;2.10;99.90
11385;DHT22;5747;56.748;13.882;2023-11-19T15:25:08;2.10;99.90
11385;DHT22;5747;56.748;13.882;2023-11-19T15:27:37;2.10;99.90
11385;DHT22;5747;56.748;13.882;2023-11-19T15:30:06;2.10;99.90
11385;DHT22;5747;56.748;13.882;2023-11-19T15:32:37;2.00;99.90
11385;DHT22;5747;56.748;13.882;2023-11-19T15:35:06;2.10;99.90
11385;DHT22;5747;56.748;13.882;2023-11-19T15:37:37;2.00;99.90
11385;DHT22;5747;56.748;13.882;2023-11-19T15:40:09;2.00;99.90
11385;DHT22;5747;56.748;13.882;2023-11-19T15:42:39;2.00;99.90
11385;DHT22;5747;56.748;13.882;2023-11-19T15:45:08;2.00;99.90
11385;DHT22;5747;56.748;13.882;2023-11-19T15:47:38;2.00;99.90
11385;DHT22;5747;56.748;13.882;2023-11-19T15:50:07;2.00;99.90
11385;DHT22;5747;56.748;13.882;2023-11-19T15:52:37;2.00;99.90
11385;DHT22;5747;56.748;13.882;2023-11-19T15:55:08;2.00;99.90
11385;DHT22;5747;56.748;13.882;2023-11-19T15:57:38;2.00;99.90
11385;DHT22;5747;56.748;13.882;2023-11-19T16:00:07;2.00;99.90